Time;durP1;ratioP1;P1;durP2;ratioP2;P2;SDS_P1;SDS_P2;PMS_P1;PMS_P2;Temp;Humidity;BMP_temperature;BMP_pressure;BME280_temperature;BME280_humidity;BME280_pressure;Samples;Min_cycle;Max_cycle;Signal;HPM_P1;HPM_P2
2023/02/13 00:01:37;;;;;;;3.20;2.70;;;16.40;44.00;;;;;;5032473;28;20201;-67
2023/02/13 00:04:05;;;;;;;3.47;2.78;;;16.40;43.90;;;;;;5032487;28;20224;-67
2023/02/13 00:06:32;;;;;;;3.58;2.75;;;16.40;44.00;;;;;;5032706;28;20192;-67
2023/02/13 00:08:59;;;;;;;3.05;2.75;;;16.40;44.00;;;;;;5014874;28;20216;-67
2023/02/13 00:11:26;;;;;;;2.92;2.63;;;16.40;43.90;;;;;;5031876;28;20201;-67
2023/02/13 00:13:53;;;;;;;3.58;2.80;;;16.30;43.90;;;;;;5032595;28;20228;-67
2023/02/13 00:16:22;;;;;;;3.25;2.53;;;16.40;43.90;;;;;;5031724;28;20232;-67
2023/02/13 00:18:49;;;;;;;4.38;2.72;;;16.40;44.00;;;;;;5032592;28;20239;-67
2023/02/13 00:21:16;;;;;;;2.97;2.65;;;16.40;43.90;;;;;;5031997;28;20200;-67
2023/02/13 00:23:44;;;;;;;3.08;2.30;;;16.30;43.90;;;;;;5032201;28;20220;-67
2023/02/13 00:26:15;;;;;;;4.05;2.53;;;16.40;43.90;;;;;;5032318;28;20188;-67
2023/02/13 00:28:42;;;;;;;3.65;2.80;;;16.40;44.00;;;;;;5032380;28;20228;-67
2023/02/13 00:31:11;;;;;;;3.38;2.47;;;16.30;43.80;;;;;;5032154;28;20243;-67
2023/02/13 00:33:40;;;;;;;4.47;2.83;;;16.30;43.80;;;;;;5031578;28;20189;-67
2023/02/13 00:36:10;;;;;;;2.88;2.47;;;16.30;43.90;;;;;;5031881;28;20192;-67
2023/02/13 00:38:39;;;;;;;3.53;2.80;;;16.30;43.90;;;;;;5031908;28;20330;-67
2023/02/13 00:41:06;;;;;;;4.68;2.70;;;16.30;43.90;;;;;;5031838;28;20650;-67
2023/02/13 00:43:34;;;;;;;2.60;2.30;;;16.30;43.90;;;;;;5014586;28;20243;-67
2023/02/13 00:46:01;;;;;;;3.22;2.50;;;16.30;43.90;;;;;;5031764;28;20193;-67
2023/02/13 00:48:30;;;;;;;4.25;2.70;;;16.30;43.90;;;;;;5031621;28;20238;-67
2023/02/13 00:50:59;;;;;;;2.75;2.38;;;16.30;43.80;;;;;;5032169;28;20619;-67
2023/02/13 00:53:27;;;;;;;4.18;2.78;;;16.30;43.90;;;;;;5031610;28;20196;-67
2023/02/13 00:55:54;;;;;;;3.47;2.65;;;16.30;43.80;;;;;;5031700;28;20235;-67
2023/02/13 00:58:22;;;;;;;5.10;3.00;;;16.30;43.80;;;;;;5031818;28;20220;-67
2023/02/13 01:00:50;;;;;;;3.40;2.70;;;16.30;43.80;;;;;;5034688;28;20220;-67
2023/02/13 01:03:19;;;;;;;2.90;2.55;;;16.30;43.80;;;;;;5035334;28;20697;-67
2023/02/13 01:05:47;;;;;;;2.90;2.60;;;16.30;43.80;;;;;;5035833;28;20251;-67
2023/02/13 01:08:17;;;;;;;3.85;3.03;;;16.30;43.80;;;;;;5035187;28;20247;-67
2023/02/13 01:10:46;;;;;;;4.05;2.78;;;16.30;43.80;;;;;;5035633;28;20269;-67
2023/02/13 01:13:15;;;;;;;2.92;2.40;;;16.30;43.80;;;;;;5034896;28;20716;-67
2023/02/13 01:15:42;;;;;;;5.07;2.85;;;16.30;43.80;;;;;;5035358;28;20216;-67
2023/02/13 01:18:10;;;;;;;2.95;2.65;;;16.30;43.70;;;;;;5035315;28;20193;-67
2023/02/13 01:20:37;;;;;;;3.17;2.33;;;16.30;43.80;;;;;;5035155;28;20224;-67
2023/02/13 01:23:04;;;;;;;3.25;2.80;;;16.30;43.70;;;;;;5035454;28;20247;-67
2023/02/13 01:25:33;;;;;;;4.07;2.33;;;16.30;43.70;;;;;;5035395;28;20228;-67
2023/02/13 01:28:00;;;;;;;4.18;3.08;;;16.30;43.70;;;;;;5034999;28;20201;-67
2023/02/13 01:30:28;;;;;;;2.80;2.50;;;16.30;43.70;;;;;;5035291;28;20275;-67
2023/02/13 01:32:55;;;;;;;3.05;2.70;;;16.30;43.70;;;;;;5034419;28;20725;-67
2023/02/13 01:35:22;;;;;;;3.33;2.90;;;16.20;43.60;;;;;;5017180;28;20224;-67
2023/02/13 01:37:49;;;;;;;3.25;2.92;;;16.30;43.70;;;;;;5035024;28;20246;-67
2023/02/13 01:40:17;;;;;;;3.00;2.60;;;16.20;43.60;;;;;;5034969;28;20774;-67
2023/02/13 01:42:45;;;;;;;3.40;2.92;;;16.30;43.70;;;;;;5034563;28;20564;-67
2023/02/13 01:45:31;;;;;;;4.00;2.72;;;16.20;43.60;;;;;;5035058;28;20220;-67
2023/02/13 01:48:03;;;;;;;3.67;2.15;;;16.20;43.60;;;;;;4997674;28;20728;-67
2023/02/13 01:50:33;;;;;;;2.92;2.63;;;16.20;44.30;;;;;;5034961;28;20294;-67
2023/02/13 01:53:06;;;;;;;3.80;2.90;;;16.20;43.60;;;;;;5034160;28;20734;-67
2023/02/13 01:55:37;;;;;;;2.97;2.67;;;16.20;43.60;;;;;;5034855;28;20220;-67
2023/02/13 01:58:10;;;;;;;3.22;2.80;;;16.20;43.60;;;;;;5034571;28;20639;-67
2023/02/13 02:00:39;;;;;;;3.55;3.22;;;16.20;43.60;;;;;;5034979;28;20224;-67
2023/02/13 02:03:11;;;;;;;3.08;2.50;;;16.20;43.60;;;;;;5034543;28;20184;-67
2023/02/13 02:05:39;;;;;;;3.13;2.83;;;16.20;43.60;;;;;;5034682;28;20228;-67
2023/02/13 02:08:10;;;;;;;3.58;2.80;;;16.20;43.60;;;;;;5016879;28;20185;-67
2023/02/13 02:10:38;;;;;;;2.97;2.63;;;16.20;43.60;;;;;;5033784;28;20236;-67
2023/02/13 02:13:10;;;;;;;3.17;2.50;;;16.20;43.60;;;;;;5033314;28;20192;-67
2023/02/13 02:15:37;;;;;;;3.45;2.80;;;16.20;43.60;;;;;;5033920;28;20258;-68
2023/02/13 02:18:07;;;;;;;2.85;2.55;;;16.20;43.60;;;;;;5034268;28;20188;-67
2023/02/13 02:21:00;;;;;;;3.38;2.85;;;16.20;43.60;;;;;;5034065;28;20228;-67
2023/02/13 02:23:47;;;;;;;2.63;2.40;;;16.20;43.60;;;;;;5034421;28;20247;-67
2023/02/13 02:26:56;;;;;;;3.80;2.80;;;16.20;43.60;;;;;;5034337;28;20197;-67
2023/02/13 02:29:55;;;;;;;2.80;2.50;;;16.20;43.60;;;;;;5033921;28;20220;-67
2023/02/13 02:32:48;;;;;;;2.78;2.45;;;16.20;43.60;;;;;;4953032;29;20199;-67
2023/02/13 02:35:24;;;;;;;2.78;2.47;;;16.10;43.50;;;;;;4953075;28;20227;-67
2023/02/13 02:38:13;;;;;;;3.88;2.97;;;16.10;43.50;;;;;;4937553;29;20195;-67
2023/02/13 02:40:55;;;;;;;2.90;2.60;;;16.20;43.60;;;;;;4953238;29;20246;-66
2023/02/13 02:43:36;;;;;;;3.58;3.20;;;16.20;43.60;;;;;;4953382;29;20199;-67
2023/02/13 02:46:12;;;;;;;3.13;2.83;;;16.10;43.50;;;;;;4938424;29;20283;-67
2023/02/13 02:51:48;;;;;;;3.38;2.90;;;16.10;43.40;;;;;;4919356;29;20285;-67
2023/02/13 02:57:13;;;;;;;3.85;3.10;;;16.10;43.40;;;;;;4953384;29;20685;-66
2023/02/13 03:08:07;;;;;;;4.55;3.13;;;16.10;43.30;;;;;;4952960;29;20283;-67
2023/02/13 03:13:39;;;;;;;3.53;2.78;;;16.10;43.30;;;;;;5026303;28;20208;-67
2023/02/13 03:24:45;;;;;;;2.92;2.55;;;16.10;43.20;;;;;;5033339;28;20220;-67
2023/02/13 03:30:05;;;;;;;3.00;2.60;;;16.10;43.20;;;;;;5032714;28;20611;-67
2023/02/13 03:30:21;;;;;;;3.13;2.67;;;16.10;43.20;;;;;;5032645;28;20216;-67
2023/02/13 03:32:58;;;;;;;3.75;3.00;;;16.10;43.20;;;;;;5032451;28;20188;-67
2023/02/13 03:38:28;;;;;;;3.90;2.60;;;16.10;43.10;;;;;;5032593;28;20199;-66
2023/02/13 03:41:19;;;;;;;3.58;2.75;;;16.00;43.10;;;;;;5032864;28;20231;-67
2023/02/13 03:43:56;;;;;;;5.53;2.90;;;16.10;43.20;;;;;;5032776;28;20188;-67
2023/02/13 03:46:27;;;;;;;3.30;3.00;;;16.10;43.10;;;;;;5030495;28;20277;-67
2023/02/13 03:51:43;;;;;;;3.90;3.10;;;16.00;43.00;;;;;;5031890;28;20262;-67
2023/02/13 03:54:19;;;;;;;3.47;3.10;;;16.00;43.00;;;;;;5032022;28;20238;-66
2023/02/13 03:59:36;;;;;;;3.13;2.80;;;16.00;43.00;;;;;;5032100;28;20309;-67
2023/02/13 04:02:10;;;;;;;3.42;2.90;;;16.00;42.90;;;;;;5032487;28;20193;-67
2023/02/13 04:04:46;;;;;;;3.47;2.85;;;16.10;43.10;;;;;;5032520;28;20215;-67
2023/02/13 04:07:28;;;;;;;3.25;2.95;;;16.00;43.00;;;;;;5032191;28;20183;-67
2023/02/13 04:09:59;;;;;;;3.70;3.00;;;16.00;42.90;;;;;;5032043;28;20251;-67
2023/02/13 04:12:37;;;;;;;4.18;3.30;;;16.00;43.00;;;;;;5031999;28;20189;-67
2023/02/13 04:15:11;;;;;;;3.03;2.72;;;16.00;43.00;;;;;;5032459;28;20228;-67
2023/02/13 04:17:45;;;;;;;4.18;3.38;;;16.00;43.00;;;;;;5031951;28;20239;-67
2023/02/13 04:20:13;;;;;;;4.28;3.00;;;16.00;43.00;;;;;;5031753;28;20232;-67
2023/02/13 04:22:43;;;;;;;3.80;2.90;;;16.00;43.00;;;;;;5014496;28;20193;-67
2023/02/13 04:25:15;;;;;;;4.18;3.17;;;16.00;42.90;;;;;;5031918;28;20216;-67
2023/02/13 04:27:42;;;;;;;4.18;3.15;;;16.00;42.90;;;;;;5032031;28;20635;-67
2023/02/13 04:30:11;;;;;;;3.42;2.70;;;16.00;42.80;;;;;;5014464;28;20248;-67
2023/02/13 04:32:38;;;;;;;4.28;2.97;;;16.00;42.90;;;;;;5032227;28;20189;-67
2023/02/13 04:35:06;;;;;;;3.65;3.22;;;16.00;42.80;;;;;;5033720;28;20223;-67
2023/02/13 04:37:33;;;;;;;3.40;2.95;;;16.00;42.90;;;;;;5018446;28;20662;-67
2023/02/13 04:40:01;;;;;;;3.22;2.92;;;16.00;42.90;;;;;;5035659;28;20262;-67
2023/02/13 04:42:29;;;;;;;3.30;2.58;;;16.00;42.80;;;;;;5017976;28;20306;-67
2023/02/13 04:44:57;;;;;;;5.40;3.35;;;16.00;42.90;;;;;;5018237;28;20260;-66
2023/02/13 04:47:24;;;;;;;4.25;3.42;;;16.00;42.90;;;;;;5035570;28;20188;-67
2023/02/13 04:49:51;;;;;;;3.63;2.90;;;16.00;42.90;;;;;;5035576;28;20693;-67
2023/02/13 04:52:18;;;;;;;4.05;2.78;;;16.00;42.80;;;;;;5035854;28;20242;-67
2023/02/13 04:54:45;;;;;;;3.75;2.85;;;16.00;42.90;;;;;;5035832;28;20220;-67
2023/02/13 04:57:12;;;;;;;3.40;2.97;;;16.00;42.80;;;;;;5035695;28;20196;-67
2023/02/13 04:59:41;;;;;;;4.13;2.88;;;16.00;42.80;;;;;;5035308;28;20232;-67
2023/02/13 05:02:09;;;;;;;3.05;2.75;;;16.00;42.80;;;;;;5035791;28;20193;-67
2023/02/13 05:04:36;;;;;;;3.58;3.15;;;16.00;42.90;;;;;;5035545;28;20242;-67
2023/02/13 05:07:03;;;;;;;3.95;2.83;;;16.00;42.80;;;;;;5035365;28;20250;-67
2023/02/13 05:09:30;;;;;;;5.30;3.20;;;16.00;42.80;;;;;;5017821;28;20311;-67
2023/02/13 05:11:57;;;;;;;3.30;2.70;;;15.90;42.80;;;;;;5035311;28;20730;-67
2023/02/13 05:14:24;;;;;;;3.95;3.17;;;15.90;42.70;;;;;;5035027;28;20275;-67
2023/02/13 05:16:53;;;;;;;4.20;3.03;;;16.00;42.80;;;;;;5035166;28;20290;-67
2023/02/13 05:19:20;;;;;;;4.05;3.13;;;16.00;42.80;;;;;;5035608;28;20206;-67
2023/02/13 05:24:32;;;;;;;4.10;3.08;;;15.90;42.70;;;;;;5034895;28;20191;-67
2023/02/13 05:26:59;;;;;;;3.50;2.90;;;15.90;42.80;;;;;;5035215;28;20200;-67
2023/02/13 05:29:26;;;;;;;4.00;3.10;;;15.90;42.80;;;;;;5035074;28;20251;-67
2023/02/13 05:31:57;;;;;;;3.38;2.92;;;15.90;42.70;;;;;;5035123;28;20192;-67
2023/02/13 05:34:26;;;;;;;5.32;2.97;;;15.90;42.80;;;;;;5034941;28;20197;-67
2023/02/13 05:36:53;;;;;;;5.32;2.95;;;15.90;42.70;;;;;;5034442;28;20643;-67
2023/02/13 05:39:21;;;;;;;3.45;2.80;;;15.90;42.70;;;;;;5034902;28;20196;-67
2023/02/13 05:41:49;;;;;;;3.10;2.60;;;15.90;42.80;;;;;;5034936;28;20311;-67
2023/02/13 05:44:17;;;;;;;3.00;2.70;;;15.90;42.80;;;;;;5034959;28;20195;-67
2023/02/13 05:46:45;;;;;;;3.70;3.00;;;15.90;42.80;;;;;;5034741;28;20366;-67
2023/02/13 05:49:15;;;;;;;3.97;3.10;;;15.90;42.80;;;;;;5034554;28;20197;-67
2023/02/13 05:51:45;;;;;;;3.78;3.05;;;15.90;42.70;;;;;;5035024;28;20220;-67
2023/02/13 05:54:12;;;;;;;2.97;2.67;;;15.90;42.80;;;;;;5034818;28;20208;-67
2023/02/13 05:56:39;;;;;;;2.97;2.67;;;16.00;42.80;;;;;;5034439;28;20220;-67
2023/02/13 05:59:07;;;;;;;3.13;2.65;;;16.00;42.80;;;;;;5034344;28;20602;-67
2023/02/13 06:01:34;;;;;;;3.40;2.80;;;16.00;42.80;;;;;;5034499;28;20295;-67
2023/02/13 06:04:01;;;;;;;3.67;2.80;;;16.00;42.80;;;;;;5034518;28;20250;-67
2023/02/13 06:06:30;;;;;;;3.20;2.50;;;16.10;43.00;;;;;;5034864;28;20216;-67
2023/02/13 06:08:58;;;;;;;2.97;2.65;;;16.10;42.90;;;;;;5034461;28;20193;-67
2023/02/13 06:11:25;;;;;;;3.38;2.80;;;16.10;42.90;;;;;;5034385;28;20275;-67
2023/02/13 06:13:52;;;;;;;2.92;2.63;;;16.10;42.90;;;;;;5034369;28;20239;-67
2023/02/13 06:16:19;;;;;;;3.38;2.55;;;16.10;42.90;;;;;;5033571;28;20756;-67
2023/02/13 06:18:46;;;;;;;3.05;2.72;;;16.20;43.10;;;;;;5034930;28;20200;-67
2023/02/13 06:21:14;;;;;;;4.93;2.88;;;16.20;43.00;;;;;;5034423;28;20236;-67
2023/02/13 06:23:43;;;;;;;2.80;2.53;;;16.20;43.00;;;;;;5033869;28;20638;-67
2023/02/13 06:26:10;;;;;;;3.83;2.95;;;16.20;43.00;;;;;;5034215;28;20274;-67
2023/02/13 06:28:38;;;;;;;4.55;2.88;;;16.20;43.10;;;;;;5016551;28;20242;-67
2023/02/13 06:31:05;;;;;;;3.13;2.75;;;16.30;43.10;;;;;;5033901;28;20697;-67
2023/02/13 06:33:32;;;;;;;5.75;3.10;;;16.30;43.10;;;;;;5033946;28;20193;-67
2023/02/13 06:36:00;;;;;;;4.65;3.05;;;16.30;43.10;;;;;;5033788;28;20228;-67
2023/02/13 06:38:27;;;;;;;3.17;2.88;;;16.30;43.10;;;;;;5030407;28;20239;-67
2023/02/13 06:41:00;;;;;;;5.40;3.20;;;16.30;43.10;;;;;;5033146;28;20756;-67
2023/02/13 06:43:27;;;;;;;4.35;3.33;;;16.40;43.10;;;;;;5033297;28;20584;-67
2023/02/13 06:45:54;;;;;;;4.38;3.63;;;16.40;43.10;;;;;;5033863;28;20220;-67
2023/02/13 06:48:21;;;;;;;5.07;3.35;;;16.40;43.20;;;;;;5033690;28;20192;-67
2023/02/13 06:50:50;;;;;;;3.85;3.38;;;16.40;43.20;;;;;;5033440;28;20625;-67
2023/02/13 06:53:23;;;;;;;8.85;3.83;;;16.40;43.20;;;;;;5033700;28;20193;-66
2023/02/13 06:55:52;;;;;;;4.05;3.65;;;16.40;43.30;;;;;;5033119;28;20220;-67
2023/02/13 06:58:22;;;;;;;3.33;3.00;;;16.40;44.40;;;;;;4999025;28;20275;-67
2023/02/13 07:00:50;;;;;;;4.05;3.30;;;16.40;45.00;;;;;;5033470;28;20228;-67
2023/02/13 07:03:18;;;;;;;6.07;3.67;;;16.50;44.70;;;;;;5033475;28;20193;-66
2023/02/13 07:05:45;;;;;;;3.55;2.88;;;16.50;44.50;;;;;;5033113;28;20271;-66
2023/02/13 07:08:13;;;;;;;3.50;3.00;;;16.50;44.50;;;;;;5033037;28;20188;-65
2023/02/13 07:10:42;;;;;;;4.15;3.38;;;16.50;44.50;;;;;;5014600;28;20221;-65
2023/02/13 07:13:10;;;;;;;3.40;3.00;;;16.50;44.40;;;;;;5033353;28;20207;-65
2023/02/13 07:15:39;;;;;;;4.18;3.30;;;16.60;44.40;;;;;;5033212;28;20282;-65
2023/02/13 07:18:07;;;;;;;4.45;3.28;;;16.50;44.30;;;;;;5032617;28;20193;-65
2023/02/13 07:20:34;;;;;;;3.75;3.35;;;16.60;44.30;;;;;;5033356;28;20587;-65
2023/02/13 07:23:03;;;;;;;4.57;3.40;;;16.60;44.30;;;;;;5032820;28;20670;-66
2023/02/13 07:25:30;;;;;;;5.93;4.10;;;16.60;44.10;;;;;;5033237;28;20220;-66
2023/02/13 07:28:02;;;;;;;4.30;3.60;;;16.60;44.10;;;;;;5033229;28;20196;-65
2023/02/13 07:30:29;;;;;;;4.18;3.08;;;16.70;44.10;;;;;;5032669;28;20215;-66
2023/02/13 07:33:00;;;;;;;4.70;3.28;;;16.70;44.10;;;;;;5032690;28;20192;-66
2023/02/13 07:35:27;;;;;;;4.95;3.10;;;16.70;44.10;;;;;;5032535;28;20226;-65
2023/02/13 07:37:55;;;;;;;3.97;3.20;;;16.70;44.00;;;;;;5032818;28;20250;-66
2023/02/13 07:40:22;;;;;;;3.95;2.92;;;16.70;43.90;;;;;;5032352;28;20735;-66
2023/02/13 07:42:49;;;;;;;4.53;3.17;;;16.70;43.90;;;;;;5032620;28;20196;-65
2023/02/13 07:45:17;;;;;;;4.38;3.25;;;16.70;43.80;;;;;;5032641;28;20246;-65
2023/02/13 07:47:44;;;;;;;3.92;3.22;;;16.70;43.70;;;;;;5032537;28;20234;-65
2023/02/13 07:50:19;;;;;;;7.63;3.35;;;16.80;43.80;;;;;;5011863;28;21088;-65
2023/02/13 07:52:53;;;;;;;4.40;3.33;;;16.80;43.70;;;;;;4975206;28;20201;-66
2023/02/13 07:55:23;;;;;;;4.25;3.00;;;16.80;43.80;;;;;;5022074;28;20230;-65
2023/02/13 07:57:50;;;;;;;4.63;3.40;;;16.80;43.70;;;;;;5026145;28;20207;-66
2023/02/13 08:00:19;;;;;;;5.75;3.10;;;16.80;43.60;;;;;;5028211;28;20247;-65
2023/02/13 08:02:46;;;;;;;4.95;3.30;;;16.80;43.50;;;;;;5029912;28;20659;-65
2023/02/13 08:05:15;;;;;;;4.35;3.10;;;16.80;43.50;;;;;;5036642;28;20223;-65
2023/02/13 08:07:42;;;;;;;4.95;3.22;;;16.90;43.60;;;;;;5021914;28;20197;-65
2023/02/13 08:12:56;;;;;;;4.90;3.17;;;16.90;43.60;;;;;;5022222;28;20237;-65
2023/02/13 08:15:24;;;;;;;9.68;2.83;;;17.00;43.70;;;;;;5013373;28;20220;-65
2023/02/13 08:17:51;;;;;;;4.80;3.30;;;17.00;43.70;;;;;;5029298;28;20297;-65
2023/02/13 08:20:20;;;;;;;7.10;3.15;;;17.10;43.90;;;;;;5029682;28;20200;-65
2023/02/13 08:22:47;;;;;;;4.03;3.10;;;17.10;43.90;;;;;;5030160;28;20270;-65
2023/02/13 08:25:15;;;;;;;4.82;3.33;;;17.10;43.90;;;;;;5030092;28;20251;-65
2023/02/13 08:27:42;;;;;;;5.68;3.42;;;17.20;44.00;;;;;;5014189;28;20246;-65
2023/02/13 08:30:11;;;;;;;4.63;2.83;;;17.20;44.00;;;;;;5015270;28;20196;-65
2023/02/13 08:32:39;;;;;;;4.30;3.25;;;17.20;44.00;;;;;;5028803;28;20563;-65
2023/02/13 08:35:06;;;;;;;4.07;3.10;;;17.30;44.30;;;;;;5029639;28;20189;-65
2023/02/13 08:37:35;;;;;;;7.60;3.40;;;17.30;44.00;;;;;;5022586;28;20254;-66
2023/02/13 08:40:02;;;;;;;8.18;2.85;;;17.30;44.10;;;;;;5019791;28;20192;-66
2023/02/13 08:42:30;;;;;;;8.07;3.13;;;17.40;44.10;;;;;;5018368;28;20581;-66
2023/02/13 08:44:57;;;;;;;5.85;2.97;;;17.40;44.10;;;;;;5022432;28;20235;-66
2023/02/13 08:47:24;;;;;;;9.40;3.20;;;17.50;44.10;;;;;;5016700;28;20654;-66
2023/02/13 08:49:51;;;;;;;9.75;3.50;;;17.50;44.10;;;;;;5010239;28;20246;-66
2023/02/13 08:52:19;;;;;;;9.65;3.10;;;17.50;44.00;;;;;;5042433;28;20270;-66
2023/02/13 08:54:47;;;;;;;6.22;3.42;;;17.50;44.10;;;;;;5026369;28;20192;-66
2023/02/13 08:57:15;;;;;;;4.07;3.42;;;17.50;44.10;;;;;;5048558;28;20212;-66
2023/02/13 08:59:42;;;;;;;5.63;3.50;;;17.50;44.10;;;;;;5048756;28;20191;-66
2023/02/13 09:02:11;;;;;;;5.13;3.10;;;17.50;44.10;;;;;;5019080;28;20242;-66
2023/02/13 09:04:38;;;;;;;8.63;3.38;;;17.50;44.10;;;;;;5010270;28;20198;-66
2023/02/13 09:07:06;;;;;;;5.50;3.38;;;17.50;44.10;;;;;;5028634;28;20631;-66
2023/02/13 09:09:33;;;;;;;17.90;3.30;;;17.60;44.20;;;;;;5028761;28;20243;-66
2023/02/13 09:12:02;;;;;;;5.80;3.80;;;17.60;44.20;;;;;;5026456;28;20303;-66
2023/02/13 09:14:29;;;;;;;9.05;3.63;;;17.60;44.20;;;;;;5017452;28;20250;-66
2023/02/13 09:16:56;;;;;;;9.30;3.55;;;17.60;44.20;;;;;;5021410;28;20292;-66
2023/02/13 09:19:24;;;;;;;4.70;3.45;;;17.60;44.20;;;;;;5027977;28;20243;-66
2023/02/13 09:21:51;;;;;;;7.07;3.97;;;17.60;44.10;;;;;;5030621;28;20278;-66
2023/02/13 09:24:18;;;;;;;6.05;3.55;;;17.60;44.20;;;;;;5029630;28;20674;-66
2023/02/13 09:26:45;;;;;;;4.50;2.95;;;17.60;44.00;;;;;;5023218;28;20221;-66
2023/02/13 09:29:14;;;;;;;12.02;3.42;;;17.60;44.00;;;;;;5029439;28;20294;-66
2023/02/13 09:31:41;;;;;;;5.82;3.47;;;17.60;44.00;;;;;;5029417;28;20572;-66
2023/02/13 09:34:08;;;;;;;4.72;3.33;;;17.60;43.90;;;;;;5029742;28;20189;-66
2023/02/13 09:36:36;;;;;;;10.70;3.80;;;17.50;43.70;;;;;;5043291;28;20854;-66
2023/02/13 09:39:03;;;;;;;7.28;3.58;;;17.50;43.70;;;;;;5050849;28;20278;-66
2023/02/13 09:41:34;;;;;;;10.60;4.03;;;17.60;43.70;;;;;;5049626;28;20261;-66
2023/02/13 09:44:06;;;;;;;4.70;3.50;;;17.50;43.70;;;;;;5032841;28;20196;-66
2023/02/13 09:46:37;;;;;;;5.13;3.50;;;17.50;43.60;;;;;;5033533;28;20265;-66
2023/02/13 09:49:08;;;;;;;6.55;3.75;;;17.50;43.60;;;;;;5028894;28;20627;-66
2023/02/13 09:51:36;;;;;;;5.75;3.80;;;17.50;43.60;;;;;;5029020;28;20225;-66
2023/02/13 09:54:06;;;;;;;7.38;3.90;;;17.50;43.60;;;;;;5028286;28;20674;-66
2023/02/13 09:56:48;;;;;;;5.53;3.75;;;17.50;43.70;;;;;;5029435;28;20224;-66
2023/02/13 09:59:33;;;;;;;7.07;4.20;;;17.50;43.60;;;;;;5030344;28;20188;-66
2023/02/13 10:02:17;;;;;;;5.40;3.83;;;17.50;43.60;;;;;;5039139;28;20240;-66
2023/02/13 10:04:52;;;;;;;5.97;3.90;;;17.50;43.60;;;;;;5019964;28;20650;-66
2023/02/13 10:07:28;;;;;;;6.20;3.85;;;17.50;43.70;;;;;;5023511;28;20220;-65
2023/02/13 10:10:02;;;;;;;8.25;4.15;;;17.50;43.50;;;;;;5027410;28;20257;-66
2023/02/13 10:13:04;;;;;;;11.68;4.65;;;17.50;43.70;;;;;;5028818;28;20220;-66
2023/02/13 10:15:39;;;;;;;5.97;4.72;;;17.50;44.30;;;;;;4928774;29;20589;-66
2023/02/13 10:18:12;;;;;;;5.50;4.20;;;17.50;43.70;;;;;;5009914;28;20199;-66
2023/02/13 10:20:44;;;;;;;5.53;3.95;;;17.50;43.70;;;;;;5032058;28;20187;-66
2023/02/13 10:23:21;;;;;;;4.65;4.10;;;17.50;43.70;;;;;;5046562;28;20212;-65
2023/02/13 10:25:53;;;;;;;7.55;4.40;;;17.50;43.70;;;;;;5027586;28;20270;-66
2023/02/13 10:28:30;;;;;;;9.07;5.10;;;17.50;43.70;;;;;;5008951;28;20188;-65
2023/02/13 10:31:03;;;;;;;5.78;4.68;;;17.60;43.90;;;;;;5028976;28;20219;-65
2023/02/13 10:33:37;;;;;;;7.93;4.38;;;17.50;43.80;;;;;;5027115;28;20262;-65
2023/02/13 10:36:14;;;;;;;7.07;4.28;;;17.60;43.90;;;;;;5030229;28;20215;-66
2023/02/13 10:38:45;;;;;;;8.98;4.57;;;17.60;43.90;;;;;;5034700;28;20196;-66
2023/02/13 10:41:24;;;;;;;8.48;5.10;;;17.60;44.00;;;;;;5021117;28;20649;-66
2023/02/13 10:44:04;;;;;;;7.85;4.68;;;17.60;44.00;;;;;;5020249;28;20646;-66
2023/02/13 10:46:43;;;;;;;9.55;4.72;;;17.60;44.00;;;;;;5034628;28;20215;-66
2023/02/13 10:49:28;;;;;;;7.18;4.95;;;17.60;44.00;;;;;;5025355;28;20692;-66
2023/02/13 10:52:02;;;;;;;7.55;5.20;;;17.60;44.00;;;;;;5018191;28;20535;-66
2023/02/13 10:54:52;;;;;;;6.28;4.93;;;17.70;44.10;;;;;;5026538;28;20246;-66
2023/02/13 10:57:26;;;;;;;6.47;5.13;;;17.60;44.00;;;;;;5040484;28;20223;-66
2023/02/13 11:00:05;;;;;;;6.90;4.88;;;17.60;44.00;;;;;;5034431;28;20250;-66
2023/02/13 11:02:35;;;;;;;8.88;4.90;;;17.60;44.10;;;;;;5029178;28;20920;-65
2023/02/13 11:05:16;;;;;;;6.45;4.53;;;17.60;44.10;;;;;;5026227;28;20211;-66
2023/02/13 11:07:45;;;;;;;6.43;5.07;;;17.60;44.10;;;;;;5023783;28;20224;-65
2023/02/13 11:10:16;;;;;;;6.65;4.80;;;17.60;44.00;;;;;;5026572;28;20221;-66
2023/02/13 11:12:43;;;;;;;7.05;5.30;;;17.60;44.10;;;;;;5035162;28;20273;-67
2023/02/13 11:15:23;;;;;;;8.25;4.95;;;17.70;44.20;;;;;;4989937;28;20200;-66
2023/02/13 11:17:51;;;;;;;7.55;5.03;;;17.70;44.20;;;;;;5026932;28;20246;-65
2023/02/13 11:20:47;;;;;;;6.85;5.35;;;17.70;44.20;;;;;;5028209;28;20577;-66
2023/02/13 11:23:35;;;;;;;6.32;5.50;;;17.70;44.30;;;;;;5028542;28;20307;-66
2023/02/13 11:26:06;;;;;;;8.77;5.53;;;17.70;44.20;;;;;;5028967;28;20220;-66
2023/02/13 11:28:37;;;;;;;6.82;4.65;;;17.70;44.30;;;;;;5028263;28;20709;-65
2023/02/13 11:31:15;;;;;;;10.88;5.72;;;17.70;44.30;;;;;;5028872;28;20708;-65
2023/02/13 11:33:42;;;;;;;9.35;5.10;;;17.80;44.30;;;;;;5028909;28;20254;-65
2023/02/13 11:36:15;;;;;;;7.47;5.07;;;17.80;44.30;;;;;;5028555;28;20215;-66
2023/02/13 11:38:43;;;;;;;13.32;5.25;;;17.80;44.40;;;;;;5028395;28;20208;-66
2023/02/13 11:41:13;;;;;;;7.90;5.63;;;17.80;44.30;;;;;;5032574;28;20254;-65
2023/02/13 11:43:47;;;;;;;6.80;5.15;;;17.80;44.40;;;;;;5013119;28;20239;-66
2023/02/13 11:46:19;;;;;;;10.15;5.30;;;17.80;44.30;;;;;;5028494;28;20212;-66
2023/02/13 11:49:01;;;;;;;6.85;5.13;;;17.80;44.30;;;;;;5028056;28;20219;-65
2023/02/13 11:51:42;;;;;;;9.00;5.30;;;17.80;44.30;;;;;;5012140;28;20422;-66
2023/02/13 11:54:31;;;;;;;11.75;5.78;;;17.80;44.40;;;;;;5025761;28;20258;-66
2023/02/13 11:57:02;;;;;;;10.27;5.38;;;17.80;44.30;;;;;;5028628;28;20247;-66
2023/02/13 11:59:33;;;;;;;12.15;5.35;;;17.80;44.30;;;;;;5028952;28;20219;-66
2023/02/13 12:02:16;;;;;;;15.23;5.47;;;17.80;44.30;;;;;;5036154;28;20231;-66
2023/02/13 12:04:43;;;;;;;9.00;5.82;;;17.80;44.30;;;;;;5023976;28;20192;-66
2023/02/13 12:07:18;;;;;;;7.85;5.90;;;17.80;44.30;;;;;;5028349;28;20216;-66
2023/02/13 12:09:48;;;;;;;10.05;5.20;;;17.80;44.30;;;;;;5027456;28;20196;-66
2023/02/13 12:12:21;;;;;;;14.57;6.20;;;17.80;44.30;;;;;;5013212;28;20224;-66
2023/02/13 12:14:49;;;;;;;7.43;5.65;;;17.80;44.20;;;;;;5028227;28;20715;-66
2023/02/13 12:17:21;;;;;;;12.18;5.68;;;17.80;44.30;;;;;;5035975;28;20234;-66
2023/02/13 12:19:50;;;;;;;6.07;5.10;;;17.80;44.20;;;;;;5033888;28;20196;-66
2023/02/13 12:22:31;;;;;;;7.18;5.70;;;17.80;44.30;;;;;;5026557;28;20228;-66
2023/02/13 12:25:26;;;;;;;11.32;5.20;;;17.80;44.30;;;;;;5027603;28;20689;-65
2023/02/13 12:28:07;;;;;;;7.60;5.00;;;17.80;44.20;;;;;;5036276;28;20228;-66
2023/02/13 12:31:15;;;;;;;7.85;5.20;;;17.80;44.30;;;;;;5028849;28;20743;-66
2023/02/13 12:34:11;;;;;;;10.50;5.90;;;17.80;44.30;;;;;;4982828;28;20267;-67
2023/02/13 12:36:48;;;;;;;6.57;5.13;;;17.80;44.30;;;;;;5012817;28;20592;-67
2023/02/13 12:39:28;;;;;;;7.97;5.30;;;17.80;44.20;;;;;;5024555;28;20704;-67
2023/02/13 12:42:09;;;;;;;9.43;5.50;;;17.80;44.30;;;;;;4983620;28;20646;-67
2023/02/13 12:45:05;;;;;;;9.43;5.22;;;17.80;44.30;;;;;;5035551;28;20654;-67
2023/02/13 12:47:41;;;;;;;16.65;5.57;;;17.80;44.30;;;;;;5034646;28;20251;-67
2023/02/13 12:50:30;;;;;;;9.35;5.25;;;17.80;44.30;;;;;;5025048;28;20249;-67
2023/02/13 12:53:13;;;;;;;8.07;5.78;;;17.90;44.50;;;;;;5004482;28;20294;-67
2023/02/13 12:56:08;;;;;;;9.60;5.72;;;17.80;44.40;;;;;;5028630;28;20246;-66
2023/02/13 12:59:00;;;;;;;8.07;5.25;;;17.90;44.40;;;;;;5030953;28;20208;-67
2023/02/13 13:01:50;;;;;;;6.75;5.15;;;17.90;44.40;;;;;;5032692;28;20290;-66
2023/02/13 13:04:28;;;;;;;9.77;5.57;;;17.90;44.40;;;;;;5052554;28;20269;-67
2023/02/13 13:07:12;;;;;;;7.53;5.68;;;17.90;44.40;;;;;;5037184;28;20224;-67
2023/02/13 13:10:11;;;;;;;6.72;5.47;;;17.90;44.40;;;;;;5018740;28;20701;-66
2023/02/13 13:12:48;;;;;;;7.05;5.50;;;17.90;44.40;;;;;;5025383;28;20787;-67
2023/02/13 13:15:24;;;;;;;8.65;5.20;;;17.90;44.40;;;;;;5030658;28;20196;-66
2023/02/13 13:18:04;;;;;;;9.98;5.50;;;17.90;44.40;;;;;;5032294;28;20282;-67
2023/02/13 13:20:55;;;;;;;11.13;5.72;;;18.00;44.50;;;;;;5020629;28;20262;-66
2023/02/13 13:23:29;;;;;;;15.07;5.78;;;17.90;44.50;;;;;;5020392;28;20271;-68
2023/02/13 13:26:05;;;;;;;12.15;5.70;;;18.00;44.50;;;;;;5031915;28;20279;-69
2023/02/13 13:28:38;;;;;;;12.10;5.22;;;18.00;44.50;;;;;;5029933;28;20227;-70
2023/02/13 13:31:07;;;;;;;10.02;5.60;;;18.00;44.50;;;;;;5032019;28;20654;-67
2023/02/13 13:33:35;;;;;;;17.33;5.40;;;18.00;44.80;;;;;;5031815;28;20224;-67
2023/02/13 13:36:09;;;;;;;8.43;5.40;;;18.10;45.40;;;;;;5031882;28;20189;-66
2023/02/13 13:38:50;;;;;;;9.00;5.60;;;18.10;45.40;;;;;;5032053;28;20188;-67
2023/02/13 13:41:27;;;;;;;9.93;5.88;;;18.10;45.60;;;;;;5031608;28;20716;-67
2023/02/13 13:44:38;;;;;;;10.52;5.38;;;18.20;46.10;;;;;;5031623;28;20224;-68
2023/02/13 13:47:17;;;;;;;11.60;5.82;;;18.20;46.20;;;;;;5017600;28;20216;-67
2023/02/13 13:49:50;;;;;;;9.23;5.60;;;18.30;46.40;;;;;;5052050;28;20242;-67
2023/02/13 13:52:24;;;;;;;9.45;5.15;;;18.30;46.30;;;;;;5050566;28;20290;-67